createdAt,value
2019-03-04T00:05:01.940Z,6.20
2019-03-04T00:10:07.523Z,6.20
2019-03-04T00:15:12.911Z,4.80
2019-03-04T00:20:18.288Z,5.23
2019-03-04T00:25:23.684Z,5.20
2019-03-04T00:30:29.048Z,8.30
2019-03-04T00:35:34.386Z,4.73
2019-03-04T00:40:39.789Z,5.87
2019-03-04T00:45:45.337Z,4.33
2019-03-04T00:50:50.726Z,3.13
2019-03-04T00:55:56.079Z,3.63
2019-03-04T01:01:01.490Z,3.50
2019-03-04T01:06:06.893Z,2.60
2019-03-04T01:11:12.367Z,4.07
2019-03-04T01:16:17.740Z,2.93
2019-03-04T01:21:23.145Z,2.97
2019-03-04T01:26:28.606Z,2.73
2019-03-04T01:31:33.963Z,5.13
2019-03-04T01:36:39.415Z,3.30
2019-03-04T01:41:44.808Z,2.87
2019-03-04T01:46:50.156Z,2.87
2019-03-04T01:51:55.688Z,2.70
2019-03-04T01:57:01.099Z,1.77
2019-03-04T02:02:06.664Z,2.90
2019-03-04T02:07:12.101Z,3.87
2019-03-04T02:12:17.619Z,2.43
2019-03-04T02:17:22.970Z,3.63
2019-03-04T02:22:28.422Z,3.83
2019-03-04T02:27:33.828Z,1.97
2019-03-04T02:32:39.195Z,2.30
2019-03-04T02:37:44.536Z,3.33
2019-03-04T02:42:49.915Z,3.43
2019-03-04T02:47:55.311Z,2.63
2019-03-04T02:53:00.676Z,3.27
2019-03-04T02:58:06.217Z,2.10
2019-03-04T03:03:11.642Z,3.27
2019-03-04T03:08:17.086Z,2.63
2019-03-04T03:13:22.584Z,3.63
2019-03-04T03:18:28.051Z,3.27
2019-03-04T03:23:33.545Z,2.70
2019-03-04T03:28:39.001Z,2.97
2019-03-04T03:33:44.434Z,3.53
2019-03-04T03:38:49.953Z,2.13
2019-03-04T03:43:55.425Z,3.20
2019-03-04T03:49:00.797Z,3.60
2019-03-04T03:54:06.182Z,2.10
2019-03-04T03:59:11.571Z,1.90
2019-03-04T04:04:17.035Z,3.20
2019-03-04T04:09:22.525Z,3.03
2019-03-04T04:14:29.348Z,2.23
2019-03-04T04:19:34.921Z,2.20
2019-03-04T04:24:40.313Z,1.20
2019-03-04T04:29:45.719Z,2.40
2019-03-04T04:34:51.087Z,2.00
2019-03-04T04:39:56.507Z,2.03
2019-03-04T04:45:02.027Z,1.53
2019-03-04T04:50:09.666Z,2.33
2019-03-04T04:55:15.126Z,1.77
2019-03-04T05:00:20.532Z,1.93
2019-03-04T05:05:25.938Z,2.17
2019-03-04T05:10:31.540Z,1.70
2019-03-04T05:15:36.982Z,3.00
2019-03-04T05:20:42.391Z,2.63
2019-03-04T05:25:47.800Z,2.03
2019-03-04T05:30:53.169Z,2.17
2019-03-04T05:35:58.668Z,2.50
2019-03-04T05:41:04.063Z,2.13
2019-03-04T05:46:09.545Z,3.30
2019-03-04T05:51:15.081Z,2.07
2019-03-04T05:56:20.462Z,1.70
2019-03-04T06:01:31.595Z,1.90
2019-03-04T06:07:01.793Z,3.17
2019-03-04T06:12:07.181Z,2.50
2019-03-04T06:17:12.577Z,2.27
2019-03-04T06:22:17.973Z,29.87
2019-03-04T06:27:23.553Z,35.83
2019-03-04T06:32:28.992Z,13.77
2019-03-04T06:37:34.453Z,8.43
2019-03-04T06:42:39.883Z,7.73
2019-03-04T06:47:45.402Z,4.33
2019-03-04T06:52:50.842Z,3.23
2019-03-04T06:57:56.337Z,4.20
2019-03-04T07:03:04.675Z,4.67
2019-03-04T07:08:20.725Z,1.63
2019-03-04T07:13:26.221Z,3.00
2019-03-04T07:18:31.582Z,2.47
2019-03-04T07:23:36.982Z,5.63
2019-03-04T07:28:42.400Z,2.53
2019-03-04T07:33:47.917Z,2.50
2019-03-04T07:39:06.144Z,4.30
2019-03-04T07:44:11.572Z,2.77
2019-03-04T07:49:16.951Z,1.73
2019-03-04T07:54:22.395Z,1.40
2019-03-04T07:59:30.118Z,5.03
2019-03-04T08:04:35.542Z,3.30
2019-03-04T08:10:36.597Z,3.80
2019-03-04T08:15:51.845Z,2.33
2019-03-04T08:20:57.340Z,4.30
2019-03-04T08:26:03.183Z,4.03
2019-03-04T08:31:09.207Z,7.10
2019-03-04T08:36:15.048Z,3.70
2019-03-04T08:41:20.451Z,5.63
2019-03-04T08:46:25.897Z,4.20
2019-03-04T08:51:31.270Z,4.67
2019-03-04T08:56:36.708Z,3.57
2019-03-04T09:01:42.343Z,3.23
2019-03-04T09:06:47.742Z,5.20
2019-03-04T09:11:53.238Z,3.43
2019-03-04T09:16:59.038Z,7.43
2019-03-04T09:22:04.487Z,4.03
2019-03-04T09:27:09.924Z,4.37
2019-03-04T09:32:15.304Z,3.80
2019-03-04T09:37:20.880Z,6.90
2019-03-04T09:42:28.171Z,6.57
2019-03-04T09:47:33.513Z,8.57
2019-03-04T09:52:38.994Z,6.57
2019-03-04T09:57:44.421Z,6.67
2019-03-04T10:02:49.921Z,5.23
2019-03-04T10:08:33.677Z,8.37
2019-03-04T10:14:30.343Z,6.37
2019-03-04T10:20:25.550Z,5.63
2019-03-04T10:26:22.591Z,3.33
2019-03-04T10:31:56.533Z,6.17
2019-03-04T10:37:31.943Z,7.13
2019-03-04T10:43:38.914Z,8.10
2019-03-04T10:48:44.348Z,6.03
2019-03-04T10:53:49.790Z,6.43
2019-03-04T10:58:55.178Z,6.13
2019-03-04T11:04:00.572Z,3.63
2019-03-04T11:09:07.733Z,5.53
2019-03-04T11:14:13.364Z,7.03
2019-03-04T11:19:18.762Z,6.50
2019-03-04T11:24:24.140Z,5.43
2019-03-04T11:29:29.626Z,6.33
2019-03-04T11:34:35.102Z,3.00
2019-03-04T11:39:46.684Z,3.87
2019-03-04T11:44:52.108Z,3.30
2019-03-04T11:49:57.479Z,6.47
2019-03-04T11:55:02.870Z,1.70
2019-03-04T12:00:17.744Z,1.87
2019-03-04T12:05:23.124Z,2.10
2019-03-04T12:10:28.472Z,1.77
2019-03-04T12:15:33.813Z,1.03
2019-03-04T12:20:39.201Z,1.63
2019-03-04T12:25:44.598Z,2.33
2019-03-04T12:30:49.975Z,1.40
2019-03-04T12:35:55.425Z,2.90
2019-03-04T12:41:00.779Z,3.20
2019-03-04T12:46:06.748Z,2.13
2019-03-04T12:51:12.078Z,2.53
2019-03-04T12:56:17.481Z,3.33
2019-03-04T13:01:22.901Z,4.23
2019-03-04T13:06:28.296Z,2.90
2019-03-04T13:11:33.655Z,3.37
2019-03-04T13:16:39.030Z,3.07
2019-03-04T13:21:44.421Z,3.97
2019-03-04T13:26:49.874Z,3.83
2019-03-04T13:31:55.257Z,5.03
2019-03-04T13:37:00.597Z,4.10
2019-03-04T13:42:06.003Z,3.77
2019-03-04T13:47:11.605Z,11.30
2019-03-04T13:52:17.038Z,5.20
2019-03-04T13:57:22.370Z,10.03
2019-03-04T14:02:27.734Z,3.00
2019-03-04T14:07:33.199Z,3.03
2019-03-04T14:12:38.574Z,4.70
2019-03-04T14:17:43.937Z,4.70
2019-03-04T14:22:57.315Z,4.10
2019-03-04T14:27:56.465Z,6.90
2019-03-04T14:33:01.861Z,7.53
2019-03-04T14:38:07.227Z,6.07
2019-03-04T14:43:12.695Z,6.30
2019-03-04T14:48:18.278Z,3.40
2019-03-04T14:53:23.641Z,3.03
2019-03-04T14:58:29.039Z,3.00
2019-03-04T15:03:34.475Z,5.50
2019-03-04T15:08:39.870Z,4.77
2019-03-04T15:13:46.227Z,4.00
2019-03-04T15:18:51.688Z,6.33
2019-03-04T15:23:57.265Z,4.60
2019-03-04T15:29:02.671Z,3.60
2019-03-04T15:34:08.130Z,4.40
2019-03-04T15:39:22.877Z,5.23
2019-03-04T15:44:23.876Z,6.33
2019-03-04T15:49:29.431Z,5.80
2019-03-04T15:54:34.915Z,4.93
2019-03-04T15:59:40.278Z,4.70
2019-03-04T16:04:45.753Z,3.40
2019-03-04T16:09:51.802Z,6.00
2019-03-04T16:14:57.185Z,4.17
2019-03-04T16:20:02.564Z,5.17
2019-03-04T16:25:08.714Z,3.83
2019-03-04T16:30:17.486Z,11.10
2019-03-04T16:35:23.412Z,5.40
2019-03-04T16:40:29.662Z,6.33
2019-03-04T16:45:36.895Z,5.43
2019-03-04T16:50:44.742Z,6.13
2019-03-04T16:55:51.204Z,2.73
2019-03-04T17:00:57.131Z,5.13
2019-03-04T17:06:07.819Z,4.67
2019-03-04T17:11:16.872Z,5.03
2019-03-04T17:16:26.944Z,2.13
2019-03-04T17:21:33.747Z,5.57
2019-03-04T17:26:41.358Z,4.00
2019-03-04T17:31:49.794Z,6.17
2019-03-04T17:36:56.634Z,3.17
2019-03-04T17:42:02.587Z,5.87
2019-03-04T17:47:08.027Z,4.47
2019-03-04T17:52:13.470Z,6.03
2019-03-04T17:57:18.946Z,8.53
2019-03-04T18:02:24.341Z,7.60
2019-03-04T18:07:29.769Z,5.73
2019-03-04T18:12:35.126Z,5.23
2019-03-04T18:17:40.506Z,8.07
2019-03-04T18:22:45.915Z,7.30
2019-03-04T18:27:56.006Z,6.83
2019-03-04T18:34:07.235Z,11.17
2019-03-04T18:40:13.907Z,7.47
2019-03-04T18:46:22.568Z,7.73
2019-03-04T18:51:30.037Z,6.67
2019-03-04T18:56:35.444Z,10.70
2019-03-04T19:01:40.816Z,14.33
2019-03-04T19:06:46.193Z,8.97
2019-03-04T19:11:51.661Z,9.40
2019-03-04T19:16:57.015Z,5.53
2019-03-04T19:22:02.350Z,6.53
2019-03-04T19:27:07.703Z,7.20
2019-03-04T19:32:13.105Z,6.50
2019-03-04T19:37:18.516Z,7.37
2019-03-04T19:42:23.940Z,5.47
2019-03-04T19:47:29.349Z,8.13
2019-03-04T19:52:34.721Z,7.10
2019-03-04T19:57:41.969Z,6.73
2019-03-04T20:02:48.192Z,8.93
2019-03-04T20:07:53.637Z,6.50
2019-03-04T20:12:59.093Z,6.13
2019-03-04T20:18:04.493Z,8.00
2019-03-04T20:23:09.840Z,9.57
2019-03-04T20:28:16.967Z,8.53
2019-03-04T20:33:22.369Z,9.80
2019-03-04T20:38:33.315Z,5.90
2019-03-04T20:43:38.742Z,5.53
2019-03-04T20:48:44.268Z,5.80
2019-03-04T20:53:49.785Z,8.87
2019-03-04T20:58:55.154Z,4.07
2019-03-04T21:04:00.507Z,5.80
2019-03-04T21:09:07.280Z,1.40
2019-03-04T21:14:12.665Z,1.83
2019-03-04T21:19:18.078Z,1.33
2019-03-04T21:24:23.410Z,3.23
2019-03-04T21:30:30.249Z,2.57
2019-03-04T21:36:16.019Z,2.20
2019-03-04T21:42:17.582Z,2.90
2019-03-04T21:47:40.907Z,2.97
2019-03-04T21:53:18.277Z,8.03
2019-03-04T21:58:23.641Z,2.70
2019-03-04T22:03:33.511Z,4.77
2019-03-04T22:08:38.902Z,5.13
2019-03-04T22:13:44.262Z,6.30
2019-03-04T22:18:49.679Z,7.50
2019-03-04T22:23:55.057Z,6.83
2019-03-04T22:29:00.466Z,7.60
2019-03-04T22:34:05.927Z,9.23
2019-03-04T22:39:11.284Z,10.20
2019-03-04T22:44:16.706Z,8.40
2019-03-04T22:49:22.069Z,8.13
2019-03-04T22:54:29.095Z,4.23
2019-03-04T22:59:34.614Z,12.03
2019-03-04T23:05:10.255Z,10.43
2019-03-04T23:10:44.070Z,9.67
2019-03-04T23:15:51.619Z,8.13
2019-03-04T23:20:57.009Z,13.27
2019-03-04T23:26:02.583Z,11.53
2019-03-04T23:31:08.628Z,13.77
2019-03-04T23:36:14.019Z,10.50
2019-03-04T23:41:19.815Z,11.93
2019-03-04T23:46:25.209Z,8.73
2019-03-04T23:51:30.603Z,9.67
2019-03-04T23:56:36.009Z,9.97
